Time;durP1;ratioP1;P1;durP2;ratioP2;P2;SDS_P1;SDS_P2;PMS_P1;PMS_P2;Temp;Humidity;BMP_temperature;BMP_pressure;BME280_temperature;BME280_humidity;BME280_pressure;Samples;Min_cycle;Max_cycle;Signal;HPM_P1;HPM_P2
2022/09/19 00:02:13;;;;;;;1.13;0.60;;;10.10;99.90;;;;;;5117116;27;20475;-72
2022/09/19 00:05:54;;;;;;;;;;;;;;;;;;;;;
2022/09/19 00:08:46;;;;;;;2.63;0.57;;;10.10;99.90;;;;;;5113332;27;20816;-72
2022/09/19 00:11:50;;;;;;;0.80;0.80;;;10.10;99.90;;;;;;5119392;27;20478;-72
2022/09/19 00:14:55;;;;;;;0.83;0.50;;;10.10;99.90;;;;;;5113058;27;20569;-72
2022/09/19 00:21:37;;;;;;;1.33;0.70;;;10.00;99.90;;;;;;5120246;27;20589;-72
2022/09/19 00:24:49;;;;;;;0.70;0.70;;;10.00;99.90;;;;;;5100683;27;21220;-72
2022/09/19 00:28:12;;;;;;;0.50;0.50;;;10.00;99.90;;;;;;5122912;27;20481;-72
2022/09/19 00:31:50;;;;;;;0.97;0.80;;;9.90;99.90;;;;;;5119574;27;20839;-72
2022/09/19 00:34:55;;;;;;;0.70;0.63;;;9.90;99.90;;;;;;5119240;27;20483;-72
2022/09/19 00:37:52;;;;;;;1.03;0.80;;;9.90;99.90;;;;;;5123862;27;20441;-72
2022/09/19 00:40:54;;;;;;;0.67;0.60;;;9.90;99.90;;;;;;5125902;27;20450;-72
2022/09/19 00:44:06;;;;;;;0.57;0.57;;;9.80;99.90;;;;;;5121357;27;20569;-72
2022/09/19 00:47:14;;;;;;;0.77;0.77;;;9.80;99.90;;;;;;5123131;27;20454;-72
2022/09/19 00:50:58;;;;;;;2.50;0.90;;;9.90;99.90;;;;;;5122278;27;20455;-72
2022/09/19 00:54:05;;;;;;;0.90;0.90;;;9.80;99.90;;;;;;5118432;27;20477;-72
2022/09/19 00:57:10;;;;;;;1.00;0.90;;;9.80;99.90;;;;;;5127503;27;20446;-72
2022/09/19 01:00:04;;;;;;;1.00;0.80;;;9.80;99.90;;;;;;5120239;27;20447;-72
2022/09/19 01:03:06;;;;;;;1.70;0.90;;;9.80;99.90;;;;;;5122896;27;20599;-72
2022/09/19 01:09:24;;;;;;;1.20;1.10;;;9.80;99.90;;;;;;5118916;27;20820;-72
2022/09/19 01:12:52;;;;;;;1.13;0.90;;;9.80;99.90;;;;;;5120591;27;20467;-72
2022/09/19 01:16:03;;;;;;;1.00;0.90;;;9.70;99.90;;;;;;5120691;27;20478;-72
2022/09/19 01:23:06;;;;;;;1.20;1.10;;;9.70;99.90;;;;;;5098675;28;21152;-72
2022/09/19 01:26:17;;;;;;;1.90;1.30;;;9.70;99.90;;;;;;5126218;28;20443;-72
2022/09/19 01:29:34;;;;;;;1.37;1.00;;;9.70;99.90;;;;;;5122464;28;20552;-72
2022/09/19 01:32:49;;;;;;;1.83;1.20;;;9.60;99.90;;;;;;5116228;28;20538;-72
2022/09/19 01:42:16;;;;;;;1.83;1.37;;;9.50;99.90;;;;;;5113849;28;20967;-72
2022/09/19 01:45:39;;;;;;;1.70;1.60;;;9.50;99.90;;;;;;5122793;28;20523;-72
2022/09/19 01:48:54;;;;;;;1.70;1.60;;;9.50;99.90;;;;;;5118879;28;20464;-72
2022/09/19 01:52:04;;;;;;;1.77;1.37;;;9.50;99.90;;;;;;5116600;28;20463;-72
2022/09/19 01:55:15;;;;;;;2.43;1.30;;;9.50;99.90;;;;;;5121592;27;20467;-72
2022/09/19 01:58:18;;;;;;;1.47;1.30;;;9.50;99.90;;;;;;5124390;28;21076;-72
2022/09/19 02:01:29;;;;;;;1.57;1.43;;;9.50;99.90;;;;;;5123709;28;20981;-71
2022/09/19 02:04:42;;;;;;;2.27;1.13;;;9.40;99.90;;;;;;5119027;28;20471;-72
2022/09/19 02:07:45;;;;;;;2.10;1.40;;;9.40;99.90;;;;;;5121536;28;20459;-72
2022/09/19 02:14:16;;;;;;;1.70;1.60;;;9.40;99.90;;;;;;5119756;28;20487;-72
2022/09/19 02:17:31;;;;;;;3.47;1.40;;;9.30;99.90;;;;;;5119289;27;20511;-72
2022/09/19 02:20:40;;;;;;;1.47;1.37;;;9.40;99.90;;;;;;5123474;28;20447;-72
2022/09/19 02:23:50;;;;;;;1.53;1.20;;;9.40;99.90;;;;;;5124854;27;20478;-71
2022/09/19 02:27:07;;;;;;;1.10;1.07;;;9.40;99.90;;;;;;5124058;27;20549;-71
2022/09/19 02:30:24;;;;;;;1.30;1.20;;;9.40;99.90;;;;;;5122533;27;20482;-72
2022/09/19 02:33:48;;;;;;;;;;;;;;;;;;;;;
2022/09/19 02:37:02;;;;;;;;;;;;;;;;;;;;;
2022/09/19 02:40:11;;;;;;;3.03;1.30;;;9.40;99.90;;;;;;5128294;27;20469;-72
2022/09/19 02:43:23;;;;;;;1.60;1.33;;;9.40;99.90;;;;;;5121411;27;20569;-72
2022/09/19 02:46:43;;;;;;;2.27;1.20;;;9.40;99.90;;;;;;5115833;27;20454;-72
2022/09/19 02:50:08;;;;;;;1.47;1.03;;;9.40;99.90;;;;;;5125905;27;20829;-73
2022/09/19 02:53:05;;;;;;;1.10;1.00;;;9.40;99.90;;;;;;5126527;27;21075;-73
2022/09/19 02:56:13;;;;;;;1.60;1.13;;;9.40;99.90;;;;;;5121153;27;20590;-73
2022/09/19 02:59:15;;;;;;;1.20;1.10;;;9.40;99.90;;;;;;5124154;27;20454;-73
2022/09/19 03:02:38;;;;;;;1.20;1.10;;;9.40;99.90;;;;;;5119954;27;20467;-73
2022/09/19 03:06:08;;;;;;;1.27;0.90;;;9.40;99.90;;;;;;5116018;27;20818;-73
2022/09/19 03:09:27;;;;;;;1.03;0.93;;;9.30;99.90;;;;;;5126874;27;20442;-73
2022/09/19 03:16:15;;;;;;;1.40;1.30;;;9.30;99.90;;;;;;5129427;27;20475;-73
2022/09/19 03:19:18;;;;;;;1.20;1.10;;;9.30;99.90;;;;;;5122517;27;20454;-73
2022/09/19 03:22:22;;;;;;;1.37;1.27;;;9.20;99.90;;;;;;5121432;27;20481;-73
2022/09/19 03:25:30;;;;;;;2.13;1.30;;;9.20;99.90;;;;;;5121988;27;20466;-73
2022/09/19 03:31:57;;;;;;;1.47;1.10;;;9.20;99.90;;;;;;5124476;27;20458;-73
2022/09/19 03:35:14;;;;;;;1.50;1.30;;;9.20;99.90;;;;;;5116833;27;20466;-73
2022/09/19 03:38:30;;;;;;;1.23;1.13;;;9.20;99.90;;;;;;5112529;27;20455;-73
2022/09/19 03:42:02;;;;;;;1.53;1.30;;;9.20;99.90;;;;;;5123187;27;21037;-73
2022/09/19 03:45:33;;;;;;;1.90;1.13;;;9.10;99.90;;;;;;5121429;27;20498;-71
2022/09/19 03:48:38;;;;;;;1.47;1.10;;;9.10;99.90;;;;;;5125365;27;20540;-74
2022/09/19 03:51:46;;;;;;;1.43;1.20;;;9.20;99.90;;;;;;5126003;27;20470;-74
2022/09/19 03:54:51;;;;;;;1.47;1.20;;;9.10;99.90;;;;;;5119153;27;20497;-74
2022/09/19 03:57:42;;;;;;;1.27;1.00;;;9.00;99.90;;;;;;5126685;27;20450;-74
2022/09/19 04:01:03;;;;;;;1.40;1.30;;;9.00;99.90;;;;;;5124802;27;20452;-74
2022/09/19 04:04:15;;;;;;;1.10;1.00;;;9.00;99.90;;;;;;5126223;27;20483;-73
2022/09/19 04:07:16;;;;;;;1.90;1.50;;;9.00;99.90;;;;;;5123678;27;20474;-73
2022/09/19 04:10:19;;;;;;;1.73;1.37;;;9.00;99.90;;;;;;5122079;27;20826;-73
2022/09/19 04:17:02;;;;;;;1.27;1.10;;;8.90;99.90;;;;;;5122932;27;20475;-73
2022/09/19 04:20:19;;;;;;;1.63;1.27;;;8.90;99.90;;;;;;5121524;27;20588;-73
2022/09/19 04:23:25;;;;;;;1.50;1.40;;;8.90;99.90;;;;;;5116110;27;20482;-73
2022/09/19 04:26:21;;;;;;;2.23;1.40;;;8.90;99.90;;;;;;5125678;27;20458;-73
2022/09/19 04:29:23;;;;;;;2.00;1.20;;;8.90;99.90;;;;;;5121491;27;20460;-73
2022/09/19 04:32:21;;;;;;;1.60;1.23;;;8.90;99.90;;;;;;5119328;27;20481;-73
2022/09/19 04:35:20;;;;;;;2.53;1.10;;;8.90;99.90;;;;;;5124339;27;20467;-73
2022/09/19 04:38:43;;;;;;;1.57;1.40;;;8.90;99.90;;;;;;5122943;27;20459;-73
2022/09/19 04:41:53;;;;;;;1.43;1.33;;;8.90;99.90;;;;;;5113101;27;20482;-73
2022/09/19 04:44:58;;;;;;;1.57;1.30;;;8.90;99.90;;;;;;5115356;27;20471;-73
2022/09/19 04:48:07;;;;;;;1.20;1.07;;;9.00;99.90;;;;;;5117815;27;20530;-73
2022/09/19 04:51:06;;;;;;;1.87;1.40;;;9.00;99.90;;;;;;5107578;27;20528;-73
2022/09/19 04:54:14;;;;;;;1.40;1.30;;;9.00;99.90;;;;;;5117119;27;20590;-73
2022/09/19 04:57:46;;;;;;;2.90;1.40;;;9.00;99.90;;;;;;5114520;27;20578;-73
2022/09/19 05:04:31;;;;;;;2.37;1.37;;;9.10;99.90;;;;;;5118386;27;20474;-73
2022/09/19 05:07:21;;;;;;;2.17;1.67;;;9.10;99.90;;;;;;5115937;27;20449;-73
2022/09/19 05:10:09;;;;;;;3.60;1.43;;;9.20;99.90;;;;;;5106813;27;20465;-74
2022/09/19 05:12:58;;;;;;;5.83;1.50;;;9.20;99.90;;;;;;5106746;27;20479;-74
2022/09/19 05:15:54;;;;;;;5.07;1.37;;;9.30;99.90;;;;;;5103317;27;20464;-74
2022/09/19 05:18:49;;;;;;;2.70;1.43;;;9.30;99.90;;;;;;5102712;27;20458;-74
2022/09/19 05:21:38;;;;;;;1.57;1.20;;;9.30;99.90;;;;;;5112504;27;20462;-74
2022/09/19 05:24:28;;;;;;;3.17;1.67;;;9.30;99.90;;;;;;5114312;27;20855;-74
2022/09/19 05:27:23;;;;;;;5.93;1.57;;;9.40;99.90;;;;;;5084939;27;21434;-74
2022/09/19 05:30:14;;;;;;;1.60;1.40;;;9.40;99.90;;;;;;5105098;27;21161;-74
2022/09/19 05:33:06;;;;;;;3.90;1.20;;;9.50;99.90;;;;;;5103342;27;20475;-74
2022/09/19 05:36:00;;;;;;;3.90;1.70;;;9.50;99.90;;;;;;5112606;27;20546;-74
2022/09/19 05:38:59;;;;;;;3.10;1.80;;;9.60;99.90;;;;;;5104586;27;20447;-74
2022/09/19 05:41:47;;;;;;;3.27;1.63;;;9.60;99.90;;;;;;5116522;28;20476;-74
2022/09/19 05:44:38;;;;;;;1.67;1.20;;;9.60;99.90;;;;;;5109641;28;20471;-72
2022/09/19 05:47:28;;;;;;;3.00;1.73;;;9.70;99.90;;;;;;5099964;27;20449;-74
2022/09/19 05:50:21;;;;;;;6.20;1.50;;;9.70;99.90;;;;;;5095995;27;20451;-74
2022/09/19 05:56:17;;;;;;;5.20;1.63;;;9.70;99.90;;;;;;5110415;28;20454;-74
2022/09/19 05:59:06;;;;;;;5.70;1.70;;;9.80;99.90;;;;;;5116692;27;20972;-74
2022/09/19 06:01:54;;;;;;;4.47;1.57;;;9.80;99.90;;;;;;5122545;27;20635;-72
2022/09/19 06:04:44;;;;;;;5.60;1.70;;;9.80;99.90;;;;;;5095771;27;21112;-72
2022/09/19 06:07:32;;;;;;;7.37;1.90;;;9.90;99.90;;;;;;5113306;27;20471;-72
2022/09/19 06:10:22;;;;;;;4.70;1.90;;;9.90;99.90;;;;;;5115783;27;20446;-72
2022/09/19 06:13:12;;;;;;;4.83;1.77;;;9.90;99.90;;;;;;5121257;27;20481;-72
2022/09/19 06:16:00;;;;;;;4.60;1.90;;;9.90;99.90;;;;;;5108342;27;20455;-72
2022/09/19 06:18:49;;;;;;;4.40;1.67;;;10.00;99.90;;;;;;5116680;27;20510;-73
2022/09/19 06:21:40;;;;;;;2.70;1.50;;;10.00;99.90;;;;;;5113024;27;20468;-73
2022/09/19 06:24:28;;;;;;;3.07;1.30;;;10.00;99.90;;;;;;5119619;27;20489;-73
2022/09/19 06:27:18;;;;;;;5.17;1.30;;;10.00;99.90;;;;;;5096863;27;20665;-73
2022/09/19 06:30:09;;;;;;;4.07;1.60;;;10.10;99.90;;;;;;5106707;27;20499;-72
2022/09/19 06:32:57;;;;;;;6.20;2.60;;;10.50;99.90;;;;;;5112277;27;20686;-73
2022/09/19 06:35:46;;;;;;;5.87;1.93;;;11.00;99.90;;;;;;5106002;27;20451;-73
2022/09/19 06:38:35;;;;;;;3.03;1.30;;;11.20;99.90;;;;;;5103454;27;20481;-73
2022/09/19 06:41:23;;;;;;;5.40;1.50;;;11.20;99.90;;;;;;5117363;27;20482;-73
2022/09/19 06:44:12;;;;;;;7.67;1.60;;;11.20;99.90;;;;;;5105926;27;20479;-73
2022/09/19 06:47:01;;;;;;;2.90;1.53;;;11.10;99.90;;;;;;5107921;27;20843;-73
2022/09/19 06:49:49;;;;;;;7.33;2.13;;;11.10;99.90;;;;;;5116991;27;20450;-73
2022/09/19 06:52:39;;;;;;;8.67;2.10;;;11.10;99.90;;;;;;5113206;27;20474;-73
2022/09/19 06:55:33;;;;;;;6.87;2.27;;;11.10;99.90;;;;;;5113059;27;20482;-73
2022/09/19 06:58:21;;;;;;;5.27;2.13;;;11.10;99.90;;;;;;5114941;27;20462;-73
2022/09/19 07:01:11;;;;;;;8.37;2.00;;;11.10;99.90;;;;;;5106868;27;20486;-73
2022/09/19 07:03:59;;;;;;;8.70;2.10;;;11.10;99.90;;;;;;5114654;27;20490;-73
2022/09/19 07:06:47;;;;;;;7.00;2.20;;;11.20;99.90;;;;;;5111958;27;20474;-73
2022/09/19 07:09:35;;;;;;;7.73;2.23;;;11.30;99.90;;;;;;5108476;27;20482;-73
2022/09/19 07:12:24;;;;;;;9.27;2.23;;;11.30;99.90;;;;;;5113569;27;20995;-73
2022/09/19 07:15:12;;;;;;;5.73;2.27;;;11.30;99.90;;;;;;5100861;27;20474;-73
2022/09/19 07:18:08;;;;;;;8.00;2.17;;;11.40;99.90;;;;;;5099726;27;20479;-73
2022/09/19 07:20:59;;;;;;;5.47;2.00;;;11.50;99.90;;;;;;5121601;27;20455;-73
2022/09/19 07:23:47;;;;;;;8.13;2.20;;;11.60;99.90;;;;;;5113548;27;20476;-73
2022/09/19 07:26:36;;;;;;;8.93;2.90;;;11.70;99.90;;;;;;5112568;27;20500;-73
2022/09/19 07:29:24;;;;;;;6.80;2.57;;;11.70;99.90;;;;;;5105332;27;20443;-73
2022/09/19 07:32:14;;;;;;;8.83;2.07;;;11.80;99.90;;;;;;5111503;27;20471;-73
2022/09/19 07:35:08;;;;;;;6.20;2.33;;;11.90;99.90;;;;;;5112329;27;20531;-73
2022/09/19 07:37:57;;;;;;;7.00;2.27;;;12.00;99.90;;;;;;5109855;27;20471;-73
2022/09/19 07:40:46;;;;;;;7.93;2.07;;;12.10;99.90;;;;;;5113650;27;21155;-73
2022/09/19 07:43:34;;;;;;;7.37;2.43;;;12.20;99.90;;;;;;5115101;27;20467;-73
2022/09/19 07:46:23;;;;;;;9.17;2.47;;;12.30;99.90;;;;;;5114263;27;21056;-73
2022/09/19 07:49:12;;;;;;;9.97;2.07;;;12.40;99.90;;;;;;5110480;27;20447;-73
2022/09/19 07:52:03;;;;;;;6.73;2.93;;;12.50;99.90;;;;;;5115123;27;20620;-73
2022/09/19 07:54:52;;;;;;;8.37;2.60;;;12.60;99.90;;;;;;5115093;27;21002;-73
2022/09/19 07:57:50;;;;;;;9.27;2.70;;;12.60;99.90;;;;;;5116426;27;20486;-73
2022/09/19 08:00:40;;;;;;;9.80;2.43;;;12.70;99.90;;;;;;5113229;27;20606;-73
2022/09/19 08:03:28;;;;;;;8.80;2.70;;;12.80;99.90;;;;;;5115413;27;20478;-74
2022/09/19 08:06:17;;;;;;;12.67;2.30;;;12.90;99.90;;;;;;5112173;27;20950;-73
2022/09/19 08:09:09;;;;;;;7.03;2.47;;;13.00;99.90;;;;;;5117030;27;20447;-72
2022/09/19 08:12:00;;;;;;;8.70;2.93;;;13.00;99.90;;;;;;5110691;27;21931;-72
2022/09/19 08:14:49;;;;;;;6.83;3.13;;;13.10;99.90;;;;;;5106031;27;20860;-73
2022/09/19 08:17:37;;;;;;;8.50;2.30;;;13.10;99.90;;;;;;5111513;27;20508;-73
2022/09/19 08:20:26;;;;;;;9.40;2.80;;;13.20;99.90;;;;;;5114678;27;20456;-73
2022/09/19 08:23:16;;;;;;;12.00;2.93;;;13.20;99.90;;;;;;5114868;27;20486;-73
2022/09/19 08:26:06;;;;;;;11.13;2.70;;;13.30;99.90;;;;;;5114879;27;20545;-73
2022/09/19 08:28:54;;;;;;;9.80;2.47;;;13.40;99.90;;;;;;5114113;27;20451;-73
2022/09/19 08:31:43;;;;;;;9.17;2.63;;;13.50;99.90;;;;;;5109769;27;21074;-72
2022/09/19 08:34:31;;;;;;;9.63;2.83;;;13.60;99.90;;;;;;5111575;27;20473;-73
2022/09/19 08:37:22;;;;;;;8.93;2.10;;;13.60;99.90;;;;;;5112303;27;20462;-72
2022/09/19 08:40:19;;;;;;;9.53;2.40;;;13.70;99.90;;;;;;5113647;27;20447;-73
2022/09/19 08:43:13;;;;;;;8.93;2.30;;;13.70;99.90;;;;;;5114466;27;20477;-72
2022/09/19 08:46:12;;;;;;;9.07;2.30;;;13.80;99.90;;;;;;5117275;27;20451;-72
2022/09/19 08:49:05;;;;;;;6.50;2.27;;;13.80;99.90;;;;;;5116066;27;20441;-73
2022/09/19 08:51:57;;;;;;;8.33;2.27;;;13.90;99.90;;;;;;5107380;27;20476;-72
2022/09/19 08:54:48;;;;;;;11.00;2.40;;;14.00;99.90;;;;;;5112179;27;20474;-72
2022/09/19 08:57:39;;;;;;;9.40;2.40;;;14.10;99.90;;;;;;5117589;27;20882;-72
2022/09/19 09:00:36;;;;;;;5.20;1.87;;;14.20;99.90;;;;;;5114494;27;20572;-73
2022/09/19 09:03:34;;;;;;;7.77;2.23;;;14.30;99.90;;;;;;5102403;27;20485;-73
2022/09/19 09:06:34;;;;;;;10.47;3.03;;;14.40;99.90;;;;;;5113162;27;20591;-73
2022/09/19 09:09:32;;;;;;;7.73;2.13;;;14.50;99.90;;;;;;5117413;27;20473;-73
2022/09/19 09:12:35;;;;;;;10.60;3.40;;;14.50;99.90;;;;;;5114202;27;20574;-72
2022/09/19 09:15:28;;;;;;;9.80;2.13;;;14.60;99.90;;;;;;5111372;27;21412;-73
2022/09/19 09:18:52;;;;;;;5.73;2.03;;;14.60;99.90;;;;;;5107920;27;20480;-73
2022/09/19 09:21:49;;;;;;;8.67;2.10;;;14.70;99.90;;;;;;5114428;27;20515;-73
2022/09/19 09:24:41;;;;;;;8.00;2.30;;;14.80;99.90;;;;;;5110337;27;20463;-73
2022/09/19 09:27:36;;;;;;;5.80;1.80;;;14.90;99.90;;;;;;5115351;27;20454;-73
2022/09/19 09:30:24;;;;;;;8.07;1.93;;;14.90;99.90;;;;;;5111675;27;20441;-74
2022/09/19 09:33:21;;;;;;;8.00;1.97;;;15.00;99.90;;;;;;5112112;27;21006;-73
2022/09/19 09:36:16;;;;;;;5.63;1.57;;;15.10;99.90;;;;;;5102838;27;20453;-74
2022/09/19 09:39:12;;;;;;;3.30;2.07;;;15.10;99.90;;;;;;5114920;27;21237;-73
2022/09/19 09:42:05;;;;;;;5.03;1.67;;;15.10;99.90;;;;;;5117008;27;20479;-73
2022/09/19 09:45:00;;;;;;;4.20;1.70;;;15.20;99.90;;;;;;5119850;27;20471;-73
2022/09/19 09:48:03;;;;;;;6.77;2.17;;;15.20;99.90;;;;;;5111756;27;21705;-73
2022/09/19 09:51:05;;;;;;;5.63;1.80;;;15.30;99.90;;;;;;5112702;27;20454;-75
2022/09/19 09:56:14;;;;;;;3.57;1.47;;;15.40;99.90;;;;;;5113981;27;20537;-74
2022/09/19 09:57:32;;;;;;;3.50;1.90;;;15.40;99.90;;;;;;5110430;27;20451;-75
2022/09/19 10:03:36;;;;;;;5.30;1.40;;;15.70;99.90;;;;;;5118460;27;20574;-73
2022/09/19 10:06:30;;;;;;;2.33;1.23;;;15.80;99.90;;;;;;5119953;27;20825;-73
2022/09/19 10:09:24;;;;;;;2.90;1.17;;;15.90;99.90;;;;;;5118023;27;20543;-73
2022/09/19 10:12:21;;;;;;;4.03;1.10;;;15.90;99.90;;;;;;5118501;27;21010;-73
2022/09/19 10:15:31;;;;;;;3.20;1.03;;;16.00;99.90;;;;;;5114590;27;20519;-73
2022/09/19 10:18:20;;;;;;;2.33;1.00;;;16.00;99.90;;;;;;5119859;27;20492;-74
2022/09/19 10:21:11;;;;;;;3.83;1.37;;;16.10;99.90;;;;;;5120362;27;20994;-74
2022/09/19 10:23:59;;;;;;;4.10;1.60;;;16.20;99.90;;;;;;5113761;27;20467;-73
2022/09/19 10:26:49;;;;;;;2.57;1.53;;;16.30;99.90;;;;;;5118706;27;21289;-75
2022/09/19 10:29:51;;;;;;;5.10;1.80;;;16.40;99.90;;;;;;5109220;27;20454;-73
2022/09/19 10:32:39;;;;;;;5.10;1.57;;;16.50;99.90;;;;;;5118493;27;20487;-73
2022/09/19 10:35:35;;;;;;;4.00;1.70;;;16.60;99.90;;;;;;5114198;27;20482;-73
2022/09/19 10:38:23;;;;;;;3.20;1.50;;;16.40;99.90;;;;;;5117963;27;21007;-73
2022/09/19 10:41:13;;;;;;;4.30;1.60;;;16.40;99.90;;;;;;5112704;27;20850;-73
2022/09/19 10:44:08;;;;;;;4.70;1.70;;;16.30;99.90;;;;;;5119613;27;20988;-73
2022/09/19 10:46:58;;;;;;;4.90;1.77;;;16.30;99.90;;;;;;5115759;27;20470;-73
2022/09/19 10:49:49;;;;;;;3.10;1.30;;;16.30;99.90;;;;;;5110544;27;20443;-73
2022/09/19 10:52:40;;;;;;;3.13;1.30;;;16.40;99.90;;;;;;5118559;27;20463;-73
2022/09/19 10:55:44;;;;;;;6.77;1.97;;;16.50;99.90;;;;;;5118678;27;20459;-73
2022/09/19 10:58:39;;;;;;;2.37;1.47;;;16.70;99.90;;;;;;5118559;27;20451;-73
2022/09/19 11:01:32;;;;;;;1.53;0.70;;;16.70;99.90;;;;;;5120522;27;20486;-73
2022/09/19 11:04:23;;;;;;;2.63;0.87;;;16.80;99.90;;;;;;5114482;27;20990;-73
2022/09/19 11:07:17;;;;;;;3.20;0.90;;;16.90;99.90;;;;;;5115542;27;20969;-74
2022/09/19 11:10:32;;;;;;;2.77;0.97;;;17.00;99.90;;;;;;5108356;27;20447;-74
2022/09/19 11:13:22;;;;;;;4.63;1.10;;;17.20;99.90;;;;;;5107371;27;20470;-75
2022/09/19 11:16:25;;;;;;;2.93;0.70;;;17.30;99.90;;;;;;5109495;27;20447;-73
2022/09/19 11:19:27;;;;;;;3.63;0.80;;;17.30;99.90;;;;;;5119364;27;20475;-74
2022/09/19 11:22:32;;;;;;;2.27;1.07;;;17.40;99.90;;;;;;5103556;27;20972;-74
2022/09/19 11:25:26;;;;;;;3.57;1.03;;;17.40;99.90;;;;;;5094650;27;21377;-74
2022/09/19 11:28:27;;;;;;;1.60;0.70;;;17.60;99.90;;;;;;5101041;27;20445;-73
2022/09/19 11:31:30;;;;;;;1.80;0.83;;;17.70;99.90;;;;;;5115513;27;20477;-74
2022/09/19 11:34:48;;;;;;;1.90;0.90;;;17.90;99.90;;;;;;5105641;27;20849;-73
2022/09/19 11:37:56;;;;;;;2.30;0.90;;;17.90;99.90;;;;;;5094926;27;20550;-72
2022/09/19 11:40:58;;;;;;;4.30;0.90;;;18.00;99.90;;;;;;5096643;27;20480;-72
2022/09/19 11:43:59;;;;;;;3.37;0.83;;;18.20;99.90;;;;;;5101759;27;21061;-73
2022/09/19 11:46:56;;;;;;;2.60;0.60;;;18.30;99.90;;;;;;5101892;27;20499;-72
2022/09/19 11:50:13;;;;;;;1.00;0.63;;;18.30;99.90;;;;;;5105691;27;20447;-73
2022/09/19 11:53:28;;;;;;;1.20;0.60;;;18.30;99.90;;;;;;5092513;27;20613;-71
2022/09/19 11:56:43;;;;;;;2.60;0.83;;;18.30;99.90;;;;;;5096294;27;20494;-72
2022/09/19 12:00:01;;;;;;;2.60;0.93;;;18.30;99.90;;;;;;5105690;27;21664;-72
2022/09/19 12:03:24;;;;;;;6.67;2.00;;;18.20;99.90;;;;;;5092934;27;20475;-72
2022/09/19 12:06:28;;;;;;;3.53;1.30;;;17.90;99.90;;;;;;5099608;27;20464;-72
2022/09/19 12:09:25;;;;;;;3.83;1.57;;;17.50;99.90;;;;;;5100192;27;20962;-72
2022/09/19 12:12:20;;;;;;;4.60;1.40;;;17.10;99.90;;;;;;5097806;27;20629;-73
2022/09/19 12:15:22;;;;;;;3.07;1.30;;;16.80;99.90;;;;;;5101067;27;20590;-72
2022/09/19 12:18:16;;;;;;;1.43;0.80;;;16.40;99.90;;;;;;5103977;27;20457;-72
2022/09/19 12:21:09;;;;;;;0.83;0.60;;;16.10;99.90;;;;;;5105002;27;20474;-73
2022/09/19 12:27:13;;;;;;;1.23;0.70;;;15.50;99.90;;;;;;5110955;27;20439;-73
2022/09/19 12:30:05;;;;;;;1.47;0.60;;;15.40;99.90;;;;;;5094966;27;20478;-73
2022/09/19 12:32:58;;;;;;;1.90;0.60;;;15.20;99.90;;;;;;5094828;27;23432;-72
2022/09/19 12:35:52;;;;;;;1.67;0.50;;;15.10;99.90;;;;;;5109282;27;21018;-73
2022/09/19 12:38:46;;;;;;;1.77;1.00;;;14.90;99.90;;;;;;5102390;27;20459;-72
2022/09/19 12:41:44;;;;;;;1.87;0.70;;;14.80;99.90;;;;;;5096401;27;20487;-73
2022/09/19 12:44:37;;;;;;;2.53;0.80;;;14.70;99.90;;;;;;5119752;27;20475;-73
2022/09/19 12:47:54;;;;;;;1.47;0.70;;;14.50;99.90;;;;;;5110640;27;20452;-72
2022/09/19 12:50:44;;;;;;;1.47;0.80;;;14.50;99.90;;;;;;5099492;27;20495;-73
2022/09/19 12:53:37;;;;;;;1.20;0.60;;;14.50;99.90;;;;;;5102713;27;20539;-73
2022/09/19 12:56:32;;;;;;;1.83;0.93;;;14.50;99.90;;;;;;5111999;27;20458;-73
2022/09/19 12:59:24;;;;;;;2.70;0.80;;;14.40;99.90;;;;;;5107645;27;20447;-71
2022/09/19 13:02:22;;;;;;;1.30;0.90;;;14.30;99.90;;;;;;5103016;27;20480;-72
2022/09/19 13:05:18;;;;;;;1.17;0.60;;;14.30;99.90;;;;;;5112309;27;20494;-71
2022/09/19 13:08:10;;;;;;;1.50;0.90;;;14.30;99.90;;;;;;5110285;27;20988;-72
2022/09/19 13:11:08;;;;;;;1.50;0.90;;;14.30;99.90;;;;;;5113757;27;20876;-71
2022/09/19 13:14:06;;;;;;;2.67;1.00;;;14.30;99.90;;;;;;5108232;27;20946;-71
2022/09/19 13:23:32;;;;;;;2.07;1.07;;;14.10;99.90;;;;;;5090568;27;21709;-72
2022/09/19 13:26:32;;;;;;;1.50;0.80;;;14.10;99.90;;;;;;5100763;27;20496;-71
2022/09/19 13:29:45;;;;;;;1.60;0.97;;;14.00;99.90;;;;;;5087661;28;20601;-71
2022/09/19 13:32:54;;;;;;;1.37;0.97;;;14.00;99.90;;;;;;5100539;27;20998;-70
2022/09/19 13:35:50;;;;;;;1.23;1.13;;;14.00;99.90;;;;;;5087481;27;20485;-71
2022/09/19 13:38:40;;;;;;;2.67;1.00;;;14.00;99.90;;;;;;5098972;27;21021;-71
2022/09/19 13:41:35;;;;;;;1.50;1.20;;;14.00;99.90;;;;;;5085560;27;20499;-71
2022/09/19 13:44:36;;;;;;;1.30;0.93;;;14.00;99.90;;;;;;5103692;27;20703;-71
2022/09/19 13:47:28;;;;;;;1.37;0.77;;;14.00;99.90;;;;;;5096885;27;21500;-71
2022/09/19 13:50:33;;;;;;;2.03;0.80;;;14.00;99.90;;;;;;5106712;28;20875;-73
2022/09/19 13:53:33;;;;;;;1.83;0.90;;;13.90;99.90;;;;;;5104494;28;20474;-71
2022/09/19 13:56:27;;;;;;;0.60;0.53;;;13.90;99.90;;;;;;5104642;28;21457;-71
2022/09/19 13:59:19;;;;;;;2.17;0.83;;;13.90;99.90;;;;;;5101384;27;20455;-74
2022/09/19 14:02:23;;;;;;;1.83;0.70;;;14.00;99.90;;;;;;5095347;27;20475;-73
2022/09/19 14:05:20;;;;;;;1.10;1.00;;;14.10;99.90;;;;;;5105966;27;20601;-72
2022/09/19 14:08:30;;;;;;;1.43;0.70;;;14.10;99.90;;;;;;5102500;27;20499;-73
2022/09/19 14:11:38;;;;;;;3.13;0.80;;;14.20;99.90;;;;;;5104004;27;20566;-73
2022/09/19 14:14:55;;;;;;;1.23;1.00;;;14.20;99.90;;;;;;5102689;27;20558;-73
2022/09/19 14:18:25;;;;;;;1.50;0.97;;;14.30;99.90;;;;;;5106768;27;20549;-73
2022/09/19 14:21:55;;;;;;;1.63;0.80;;;14.40;99.90;;;;;;5102114;27;20484;-73
2022/09/19 14:24:51;;;;;;;2.27;0.90;;;14.40;99.90;;;;;;5099480;27;20466;-74
2022/09/19 14:28:27;;;;;;;1.37;1.10;;;14.50;99.90;;;;;;5108437;27;20546;-74
2022/09/19 14:31:30;;;;;;;2.23;1.00;;;14.60;99.90;;;;;;5106329;27;20522;-74
2022/09/19 14:34:45;;;;;;;2.43;1.10;;;14.60;99.90;;;;;;5106312;27;20497;-73
2022/09/19 14:38:04;;;;;;;1.60;0.80;;;14.70;99.90;;;;;;5094896;27;20448;-73
2022/09/19 14:41:04;;;;;;;5.07;1.50;;;14.70;99.90;;;;;;5105409;27;20470;-73
2022/09/19 14:44:37;;;;;;;1.43;1.10;;;14.80;99.90;;;;;;5108407;27;20487;-74
2022/09/19 14:47:31;;;;;;;1.10;1.00;;;14.90;99.90;;;;;;5108804;27;20455;-74
2022/09/19 14:50:23;;;;;;;2.80;0.73;;;15.20;99.90;;;;;;5109480;27;21026;-74
2022/09/19 14:53:24;;;;;;;1.80;0.80;;;15.30;99.90;;;;;;5108661;27;20577;-73
2022/09/19 14:56:17;;;;;;;2.60;0.70;;;15.50;99.90;;;;;;5102640;27;20454;-72
2022/09/19 14:59:17;;;;;;;2.40;1.00;;;15.70;99.90;;;;;;5109939;27;20451;-73
2022/09/19 15:02:22;;;;;;;0.93;0.60;;;15.90;99.90;;;;;;5101616;27;20544;-73
2022/09/19 15:05:18;;;;;;;1.57;0.90;;;15.90;99.90;;;;;;5108119;27;20477;-74
2022/09/19 15:08:30;;;;;;;4.97;0.90;;;16.00;99.90;;;;;;5119207;27;20867;-73
2022/09/19 15:11:20;;;;;;;2.10;0.80;;;16.00;99.90;;;;;;5113986;27;20568;-73
2022/09/19 15:14:13;;;;;;;0.70;0.50;;;;;;;;;;5110592;27;20470;-71
2022/09/19 15:17:10;;;;;;;2.90;0.83;;;15.90;99.90;;;;;;5111389;27;20439;-71
2022/09/19 15:20:11;;;;;;;2.10;1.00;;;15.80;99.90;;;;;;5103089;27;20450;-71
2022/09/19 15:23:02;;;;;;;1.30;0.70;;;15.70;99.90;;;;;;5113930;27;20479;-72
2022/09/19 15:25:57;;;;;;;1.23;0.50;;;15.60;99.90;;;;;;5118687;27;20450;-71
2022/09/19 15:28:57;;;;;;;0.90;0.50;;;15.50;99.90;;;;;;5105940;27;20491;-70
2022/09/19 15:31:48;;;;;;;0.70;0.50;;;15.50;99.90;;;;;;5105283;27;20470;-71
2022/09/19 15:34:39;;;;;;;0.80;0.40;;;15.50;99.90;;;;;;5107232;27;20569;-71
2022/09/19 15:37:31;;;;;;;0.67;0.50;;;15.50;99.90;;;;;;5111869;27;20443;-71
2022/09/19 15:40:24;;;;;;;0.73;0.50;;;15.60;99.90;;;;;;5110624;27;21694;-71
2022/09/19 15:43:18;;;;;;;0.50;0.40;;;15.50;99.90;;;;;;5109304;27;20475;-71
2022/09/19 15:46:38;;;;;;;2.00;0.60;;;15.50;99.90;;;;;;5099960;27;20501;-70
2022/09/19 15:49:30;;;;;;;0.60;0.37;;;15.50;99.90;;;;;;5101888;27;20455;-70
2022/09/19 15:52:26;;;;;;;0.60;0.50;;;15.50;99.90;;;;;;5106042;27;20475;-69
2022/09/19 15:55:22;;;;;;;1.67;0.80;;;15.50;99.90;;;;;;5101929;27;20472;-69
2022/09/19 15:58:21;;;;;;;2.23;1.00;;;15.50;99.90;;;;;;5090431;28;21024;-70
2022/09/19 16:01:19;;;;;;;2.07;0.90;;;15.50;99.90;;;;;;5078507;28;20492;-70
2022/09/19 16:04:10;;;;;;;3.20;1.23;;;15.50;99.90;;;;;;5080538;27;20483;-70
2022/09/19 16:10:19;;;;;;;2.87;1.13;;;15.50;99.90;;;;;;5076232;28;20463;-70
2022/09/19 16:13:34;;;;;;;4.50;1.40;;;15.50;99.90;;;;;;5070677;27;20477;-70
2022/09/19 16:16:29;;;;;;;3.73;1.57;;;15.50;99.90;;;;;;5083250;28;20951;-70
2022/09/19 16:19:23;;;;;;;4.80;1.90;;;15.50;99.90;;;;;;5087349;27;20460;-70
2022/09/19 16:22:14;;;;;;;5.37;1.60;;;15.50;99.90;;;;;;5084243;27;20472;-70
2022/09/19 16:25:13;;;;;;;5.10;1.40;;;15.50;99.90;;;;;;5098249;27;20516;-70
2022/09/19 16:28:14;;;;;;;4.90;1.70;;;15.60;99.90;;;;;;5102470;28;20471;-71
2022/09/19 16:31:09;;;;;;;3.00;1.20;;;15.60;99.90;;;;;;5092138;28;20570;-70
2022/09/19 16:34:01;;;;;;;2.23;1.03;;;15.70;99.90;;;;;;5091421;27;20480;-71
2022/09/19 16:36:56;;;;;;;1.70;0.83;;;15.50;99.90;;;;;;5084068;28;20975;-71
2022/09/19 16:39:50;;;;;;;0.97;0.60;;;15.40;99.90;;;;;;5082724;28;20562;-71